createdAt,value
2019-05-17T00:00:57.173Z,72.3755
2019-05-17T00:02:00.292Z,72.2717
2019-05-17T00:03:03.299Z,72.3755
2019-05-17T00:04:07.189Z,72.4792
2019-05-17T00:05:10.279Z,72.6807
2019-05-17T00:06:13.329Z,72.7844
2019-05-17T00:07:16.716Z,72.7844
2019-05-17T00:08:31.016Z,72.6807
2019-05-17T00:09:28.284Z,72.7844
2019-05-17T00:10:30.335Z,72.6807
2019-05-17T00:11:33.290Z,72.5769
2019-05-17T00:12:36.960Z,72.5098
2019-05-17T00:13:40.290Z,72.3755
2019-05-17T00:14:43.260Z,72.3755
2019-05-17T00:15:47.378Z,72.3755
2019-05-17T00:16:50.312Z,72.3083
2019-05-17T00:17:53.328Z,72.2046
2019-05-17T00:18:56.804Z,72.1008
2019-05-17T00:19:59.477Z,71.9971
2019-05-17T00:21:02.294Z,72.1008
2019-05-17T00:22:07.316Z,72.1008
2019-05-17T00:23:10.299Z,71.9971
2019-05-17T00:24:13.287Z,71.9971
2019-05-17T00:25:16.663Z,71.8933
2019-05-17T00:26:18.304Z,71.8933
2019-05-17T00:27:21.344Z,71.7896
2019-05-17T00:28:26.739Z,71.6919
2019-05-17T00:29:30.292Z,71.6919
2019-05-17T00:30:33.293Z,71.5881
2019-05-17T00:31:36.968Z,71.5881
2019-05-17T00:32:40.342Z,71.5881
2019-05-17T00:33:43.278Z,71.4844
2019-05-17T00:34:46.982Z,71.4844
2019-05-17T00:35:50.283Z,71.4844
2019-05-17T00:36:53.302Z,71.4844
2019-05-17T00:37:57.081Z,71.4844
2019-05-17T00:39:00.291Z,71.4844
2019-05-17T00:40:03.279Z,71.3806
2019-05-17T00:41:07.084Z,71.2769
2019-05-17T00:42:10.312Z,71.2769
2019-05-17T00:43:13.335Z,71.1731
2019-05-17T00:44:16.784Z,71.1731
2019-05-17T00:45:20.271Z,71.1731
2019-05-17T00:46:23.304Z,71.1731
2019-05-17T00:47:26.565Z,71.1731
2019-05-17T00:48:29.365Z,71.0754
2019-05-17T00:49:32.284Z,71.0754
2019-05-17T00:50:37.771Z,70.9717
2019-05-17T00:51:41.296Z,70.9717
2019-05-17T00:52:44.318Z,70.9717
2019-05-17T00:53:47.319Z,70.9717
2019-05-17T00:54:50.289Z,71.0022
2019-05-17T00:55:53.296Z,71.1060
2019-05-17T00:56:56.692Z,71.3135
2019-05-17T00:58:00.310Z,71.4111
2019-05-17T00:59:03.284Z,71.4111
2019-05-17T01:00:08.296Z,71.5149
2019-05-17T01:01:11.299Z,71.5149
2019-05-17T01:02:16.183Z,71.5149
2019-05-17T01:03:19.310Z,71.6187
2019-05-17T01:04:21.271Z,71.6187
2019-05-17T01:05:24.304Z,71.7224
2019-05-17T01:06:27.641Z,71.7224
2019-05-17T01:07:31.384Z,71.7224
2019-05-17T01:08:34.280Z,71.7224
2019-05-17T01:09:37.279Z,71.6187
2019-05-17T01:10:40.327Z,71.7529
2019-05-17T01:11:43.324Z,71.7529
2019-05-17T01:12:48.205Z,71.8567
2019-05-17T01:13:51.281Z,71.7529
2019-05-17T01:14:54.304Z,71.6553
2019-05-17T01:15:56.696Z,71.6553
2019-05-17T01:17:00.301Z,71.6553
2019-05-17T01:18:03.300Z,71.5515
2019-05-17T01:19:06.858Z,71.5515
2019-05-17T01:20:10.277Z,71.5515
2019-05-17T01:21:13.303Z,71.4478
2019-05-17T01:22:16.854Z,71.3440
2019-05-17T01:23:20.344Z,71.4478
2019-05-17T01:24:23.298Z,71.5515
2019-05-17T01:25:27.276Z,71.5515
2019-05-17T01:26:30.269Z,71.5515
2019-05-17T01:27:33.323Z,71.5515
2019-05-17T01:28:36.495Z,71.5515
2019-05-17T01:29:39.277Z,71.4478
2019-05-17T01:30:42.294Z,71.4478
2019-05-17T01:31:46.508Z,71.4478
2019-05-17T01:32:50.348Z,71.6553
2019-05-17T01:33:53.323Z,71.8567
2019-05-17T01:34:56.577Z,71.8567
2019-05-17T01:35:59.284Z,71.8567
2019-05-17T01:37:02.306Z,71.8567
2019-05-17T01:38:04.271Z,71.7896
2019-05-17T01:39:17.069Z,71.7896
2019-05-17T01:40:17.332Z,71.7896
2019-05-17T01:41:20.296Z,71.7896
2019-05-17T01:42:23.289Z,71.7896
2019-05-17T01:43:27.347Z,71.7896
2019-05-17T01:44:30.297Z,71.7896
2019-05-17T01:45:33.302Z,71.6858
2019-05-17T01:46:37.024Z,71.5820
2019-05-17T01:47:40.290Z,71.5820
2019-05-17T01:48:43.298Z,71.5820
2019-05-17T01:49:46.979Z,71.9971
2019-05-17T01:50:50.283Z,72.0947
2019-05-17T01:51:53.314Z,72.8149
2019-05-17T01:52:56.602Z,72.8149
2019-05-17T01:53:59.298Z,72.9553
2019-05-17T01:55:02.319Z,72.7173
2019-05-17T01:56:07.363Z,72.7173
2019-05-17T01:57:11.275Z,72.5403
2019-05-17T01:58:16.267Z,72.4060
2019-05-17T01:59:21.262Z,72.8149
2019-05-17T02:00:26.438Z,72.5098
2019-05-17T02:01:29.315Z,72.3022
2019-05-17T02:02:32.274Z,72.0947
2019-05-17T02:03:37.310Z,71.9971
2019-05-17T02:04:40.272Z,71.7896
2019-05-17T02:05:43.320Z,71.5820
2019-05-17T02:06:46.691Z,71.4783
2019-05-17T02:07:50.299Z,71.3745
2019-05-17T02:08:53.277Z,71.2769
2019-05-17T02:09:56.860Z,71.8933
2019-05-17T02:11:00.315Z,71.8933
2019-05-17T02:12:03.309Z,72.0947
2019-05-17T02:13:06.676Z,72.1313
2019-05-17T02:14:09.299Z,71.9971
2019-05-17T02:15:12.319Z,72.5403
2019-05-17T02:16:16.392Z,72.3389
2019-05-17T02:17:19.303Z,72.4426
2019-05-17T02:18:22.273Z,72.3389
2019-05-17T02:19:26.552Z,72.2351
2019-05-17T02:20:29.307Z,72.1313
2019-05-17T02:21:32.315Z,71.9238
2019-05-17T02:22:36.743Z,71.9238
2019-05-17T02:23:40.284Z,71.8933
2019-05-17T02:24:43.290Z,71.8933
2019-05-17T02:25:47.173Z,71.7896
2019-05-17T02:26:50.373Z,71.6858
2019-05-17T02:27:53.288Z,71.6858
2019-05-17T02:28:56.304Z,71.6858
2019-05-17T02:30:02.208Z,71.5820
2019-05-17T02:31:07.284Z,71.5820
2019-05-17T02:32:12.851Z,71.4783
2019-05-17T02:33:15.292Z,71.3745
2019-05-17T02:34:18.296Z,71.2769
2019-05-17T02:35:22.883Z,71.2769
2019-05-17T02:36:26.345Z,71.2769
2019-05-17T02:37:29.325Z,71.2769
2019-05-17T02:38:33.241Z,71.3745
2019-05-17T02:39:52.532Z,71.3745
2019-05-17T02:40:44.335Z,71.3745
2019-05-17T02:41:47.311Z,71.3745
2019-05-17T02:42:53.288Z,71.3745
2019-05-17T02:43:56.311Z,71.3074
2019-05-17T02:45:02.643Z,71.2036
2019-05-17T02:46:05.303Z,71.0999
2019-05-17T02:47:08.305Z,71.0999
2019-05-17T02:48:13.362Z,71.0999
2019-05-17T02:49:16.263Z,71.2036
2019-05-17T02:50:19.283Z,71.4111
2019-05-17T02:51:23.656Z,71.6187
2019-05-17T02:52:27.348Z,71.8201
2019-05-17T02:53:33.156Z,71.9238
2019-05-17T02:54:36.289Z,71.9238
2019-05-17T02:55:39.325Z,71.8201
2019-05-17T02:56:43.640Z,71.8201
2019-05-17T02:57:47.338Z,71.7163
2019-05-17T02:58:53.070Z,71.7163
2019-05-17T02:59:56.303Z,71.7163
2019-05-17T03:00:59.278Z,71.7163
2019-05-17T03:02:03.619Z,71.7163
2019-05-17T03:03:07.340Z,71.7163
2019-05-17T03:04:13.047Z,71.8201
2019-05-17T03:05:16.307Z,71.9238
2019-05-17T03:06:22.541Z,71.9238
2019-05-17T03:07:26.306Z,71.8201
2019-05-17T03:08:29.319Z,71.7163
2019-05-17T03:09:33.561Z,71.6187
2019-05-17T03:10:37.293Z,71.5149
2019-05-17T03:11:42.959Z,71.5149
2019-05-17T03:12:46.290Z,71.6187
2019-05-17T03:13:52.355Z,71.6187
2019-05-17T03:14:55.310Z,71.8201
2019-05-17T03:15:58.280Z,71.7163
2019-05-17T03:17:03.022Z,71.7163
2019-05-17T03:18:06.291Z,71.6187
2019-05-17T03:19:12.766Z,71.6187
2019-05-17T03:20:16.279Z,71.6187
2019-05-17T03:21:22.730Z,71.7163
2019-05-17T03:22:25.289Z,71.8201
2019-05-17T03:23:28.292Z,71.9238
2019-05-17T03:24:33.286Z,72.0276
2019-05-17T03:25:36.316Z,72.1313
2019-05-17T03:26:39.295Z,72.2351
2019-05-17T03:27:42.966Z,72.2656
2019-05-17T03:28:46.302Z,72.2656
2019-05-17T03:29:49.302Z,72.1619
2019-05-17T03:30:56.395Z,72.1619
2019-05-17T03:32:07.311Z,72.2656
2019-05-17T03:33:08.462Z,72.3694
2019-05-17T03:34:16.892Z,72.5769
2019-05-17T03:35:19.356Z,72.7844
2019-05-17T03:36:26.227Z,72.8821
2019-05-17T03:37:36.508Z,72.9858
2019-05-17T03:38:37.292Z,72.9858
2019-05-17T03:39:42.769Z,72.8821
2019-05-17T03:41:13.856Z,72.8821
2019-05-17T03:41:54.338Z,72.8821
2019-05-17T03:42:57.251Z,72.9858
2019-05-17T03:44:03.173Z,73.0896
2019-05-17T03:45:06.352Z,73.1934
2019-05-17T03:46:09.270Z,73.1934
2019-05-17T03:47:13.102Z,73.2971
2019-05-17T03:48:16.270Z,73.2971
2019-05-17T03:49:22.086Z,73.2971
2019-05-17T03:50:25.311Z,73.1934
2019-05-17T03:51:28.284Z,73.1934
2019-05-17T03:52:33.305Z,73.0896
2019-05-17T03:53:36.309Z,73.0896
2019-05-17T03:54:39.330Z,73.0896
2019-05-17T03:55:42.970Z,73.0896
2019-05-17T03:56:46.311Z,72.9858
2019-05-17T03:57:49.264Z,73.0896
2019-05-17T03:58:53.037Z,73.0896
2019-05-17T03:59:56.311Z,73.1934
2019-05-17T04:00:59.300Z,73.1934
2019-05-17T04:02:03.206Z,73.1934
2019-05-17T04:03:06.321Z,73.2971
2019-05-17T04:04:09.271Z,73.2971
2019-05-17T04:05:12.871Z,73.2971
2019-05-17T04:06:16.293Z,73.4009
2019-05-17T04:07:19.275Z,73.4009
2019-05-17T04:08:22.870Z,73.5046
2019-05-17T04:09:26.306Z,73.4009
2019-05-17T04:10:29.360Z,73.4009
2019-05-17T04:11:36.274Z,73.4009
2019-05-17T04:12:39.295Z,73.2971
2019-05-17T04:13:42.985Z,73.1934
2019-05-17T04:14:46.266Z,73.0896
2019-05-17T04:15:52.721Z,73.0896
2019-05-17T04:16:56.292Z,72.9858
2019-05-17T04:17:59.317Z,72.9858
2019-05-17T04:19:03.153Z,72.8821
2019-05-17T04:20:06.331Z,72.7844
2019-05-17T04:21:12.312Z,72.6807
2019-05-17T04:22:15.321Z,72.7844
2019-05-17T04:23:18.273Z,72.7844
2019-05-17T04:24:23.087Z,72.6807
2019-05-17T04:25:25.354Z,72.6807
2019-05-17T04:26:28.275Z,72.5769
2019-05-17T04:27:32.693Z,72.4731
2019-05-17T04:28:36.324Z,72.3389
2019-05-17T04:29:42.411Z,72.3389
2019-05-17T04:30:45.329Z,72.3389
2019-05-17T04:31:48.311Z,72.8516
2019-05-17T04:32:52.693Z,72.8821
2019-05-17T04:33:56.318Z,72.9858
2019-05-17T04:34:59.289Z,72.9858
2019-05-17T04:36:02.814Z,72.8821
2019-05-17T04:37:06.334Z,72.8821
2019-05-17T04:38:09.263Z,72.8516
2019-05-17T04:39:13.394Z,72.9553
2019-05-17T04:40:16.292Z,73.1934
2019-05-17T04:41:36.136Z,73.1934
2019-05-17T04:42:27.307Z,73.1628
2019-05-17T04:43:32.991Z,73.1628
2019-05-17T04:44:36.279Z,73.1628
2019-05-17T04:45:42.354Z,73.1628
2019-05-17T04:46:45.292Z,73.2605
2019-05-17T04:47:48.289Z,73.2605
2019-05-17T04:48:53.629Z,73.4680
2019-05-17T04:49:57.341Z,73.5718
2019-05-17T04:51:02.486Z,73.5718
2019-05-17T04:52:06.326Z,73.6755
2019-05-17T04:53:09.265Z,73.7793
2019-05-17T04:54:13.760Z,73.6755
2019-05-17T04:55:17.337Z,73.6755
2019-05-17T04:56:22.712Z,73.6755
2019-05-17T04:57:26.300Z,73.6755
2019-05-17T04:58:29.321Z,73.6755
2019-05-17T04:59:33.912Z,73.6755
2019-05-17T05:00:37.343Z,73.7793
2019-05-17T05:01:43.428Z,73.6389
2019-05-17T05:02:46.300Z,73.6389
2019-05-17T05:03:52.289Z,73.6389
2019-05-17T05:04:55.340Z,73.6389
2019-05-17T05:05:58.331Z,73.6389
2019-05-17T05:07:03.129Z,73.7427
2019-05-17T05:08:06.295Z,73.8464
2019-05-17T05:09:12.472Z,73.9502
2019-05-17T05:10:16.288Z,73.8464
2019-05-17T05:11:19.359Z,73.8464
2019-05-17T05:12:22.879Z,73.7427
2019-05-17T05:13:26.297Z,73.7427
2019-05-17T05:14:29.306Z,73.6389
2019-05-17T05:15:32.389Z,73.7061
2019-05-17T05:16:35.375Z,73.8098
2019-05-17T05:17:38.339Z,73.9136
2019-05-17T05:18:42.136Z,73.9136
2019-05-17T05:19:45.331Z,74.0173
2019-05-17T05:20:48.315Z,74.2249
2019-05-17T05:21:52.062Z,74.4263
2019-05-17T05:22:55.354Z,74.6338
2019-05-17T05:23:58.291Z,74.6338
2019-05-17T05:25:02.125Z,74.8413
2019-05-17T05:26:05.330Z,75.0427
2019-05-17T05:27:08.373Z,75.2502
2019-05-17T05:28:11.507Z,75.4578
2019-05-17T05:29:14.297Z,75.5615
2019-05-17T05:30:17.298Z,75.5615
2019-05-17T05:31:22.625Z,75.4578
2019-05-17T05:32:25.351Z,75.4578
2019-05-17T05:33:28.316Z,75.5615
2019-05-17T05:34:32.197Z,75.6287
2019-05-17T05:35:35.341Z,75.8301
2019-05-17T05:36:38.326Z,75.9338
2019-05-17T05:37:42.313Z,75.9338
2019-05-17T05:38:45.319Z,75.9338
2019-05-17T05:39:48.282Z,76.0376
2019-05-17T05:40:52.128Z,76.0376
2019-05-17T05:42:06.348Z,76.0376
2019-05-17T05:43:03.315Z,76.0376
2019-05-17T05:44:06.317Z,76.0376
2019-05-17T05:45:09.287Z,76.2451
2019-05-17T05:46:12.262Z,76.2451
2019-05-17T05:47:15.383Z,76.2451
2019-05-17T05:48:18.333Z,76.3489
2019-05-17T05:49:21.660Z,76.2451
2019-05-17T05:50:25.321Z,76.3489
2019-05-17T05:51:28.294Z,76.2451
2019-05-17T05:52:32.334Z,76.3489
2019-05-17T05:53:35.321Z,76.2451
2019-05-17T05:54:37.320Z,76.1414
2019-05-17T05:55:42.615Z,76.0376
2019-05-17T05:56:45.334Z,75.9338
2019-05-17T05:57:48.355Z,75.8972
2019-05-17T05:58:52.305Z,75.7996
2019-05-17T05:59:55.277Z,75.6958
2019-05-17T06:00:58.299Z,75.8972
2019-05-17T06:02:01.743Z,75.8972
2019-05-17T06:03:05.417Z,75.6958
2019-05-17T06:04:08.274Z,75.8972
2019-05-17T06:05:14.722Z,75.7996
2019-05-17T06:06:21.424Z,75.6958
2019-05-17T06:07:24.367Z,75.5920
2019-05-17T06:08:27.349Z,75.4883
2019-05-17T06:09:31.826Z,75.8972
2019-05-17T06:10:35.323Z,75.7629
2019-05-17T06:11:38.258Z,75.8667
2019-05-17T06:12:43.348Z,75.8667
2019-05-17T06:13:47.304Z,75.9705
2019-05-17T06:14:52.236Z,75.8667
2019-05-17T06:15:55.318Z,75.9705
2019-05-17T06:16:58.309Z,76.5808
2019-05-17T06:18:02.969Z,76.5808
2019-05-17T06:19:07.414Z,76.6846
2019-05-17T06:20:11.714Z,77.0996
2019-05-17T06:21:15.320Z,77.4048
2019-05-17T06:22:18.312Z,77.3010
2019-05-17T06:23:23.217Z,77.3010
2019-05-17T06:24:27.372Z,77.1973
2019-05-17T06:25:33.752Z,77.5085
2019-05-17T06:26:37.324Z,77.4048
2019-05-17T06:27:41.538Z,77.1973
2019-05-17T06:28:45.309Z,77.2644
2019-05-17T06:29:48.326Z,77.4719
2019-05-17T06:30:52.172Z,77.5757
2019-05-17T06:31:55.337Z,77.6794
2019-05-17T06:32:58.303Z,77.6794
2019-05-17T06:34:01.942Z,77.4719
2019-05-17T06:35:05.382Z,77.4719
2019-05-17T06:36:09.384Z,77.3682
2019-05-17T06:37:13.311Z,77.3682
2019-05-17T06:38:18.369Z,77.3682
2019-05-17T06:39:22.390Z,77.2278
2019-05-17T06:40:25.376Z,77.3315
2019-05-17T06:41:28.322Z,77.5391
2019-05-17T06:42:40.296Z,77.5391
2019-05-17T06:43:41.495Z,77.8442
2019-05-17T06:44:45.308Z,77.8442
2019-05-17T06:45:48.362Z,77.8442
2019-05-17T06:46:51.884Z,77.8442
2019-05-17T06:47:55.299Z,77.8076
2019-05-17T06:48:58.331Z,77.7100
2019-05-17T06:50:03.148Z,77.5024
2019-05-17T06:51:06.337Z,77.5024
2019-05-17T06:52:11.514Z,77.3987
2019-05-17T06:53:15.324Z,77.2583
2019-05-17T06:54:18.308Z,77.1606
2019-05-17T06:55:21.313Z,77.1606
2019-05-17T06:56:24.334Z,77.1606
2019-05-17T06:57:27.313Z,77.0569
2019-05-17T06:58:31.543Z,77.1606
2019-05-17T06:59:34.355Z,77.1240
2019-05-17T07:00:37.307Z,77.0203
2019-05-17T07:01:40.973Z,77.1240
2019-05-17T07:02:44.279Z,77.1240
2019-05-17T07:03:49.435Z,77.0203
2019-05-17T07:04:55.373Z,76.8799
2019-05-17T07:05:59.625Z,76.7822
2019-05-17T07:07:03.352Z,76.7822
2019-05-17T07:08:06.377Z,76.6785
2019-05-17T07:09:10.045Z,76.5747
2019-05-17T07:10:13.306Z,76.4343
2019-05-17T07:11:16.346Z,76.4343
2019-05-17T07:12:20.209Z,76.3367
2019-05-17T07:13:23.340Z,76.5381
2019-05-17T07:14:26.293Z,76.5381
2019-05-17T07:15:43.372Z,76.5015
2019-05-17T07:16:39.486Z,76.4038
2019-05-17T07:17:42.306Z,76.3000
2019-05-17T07:18:45.343Z,76.0925
2019-05-17T07:19:50.595Z,75.9949
2019-05-17T07:20:54.361Z,75.7874
2019-05-17T07:21:59.663Z,75.4822
2019-05-17T07:23:03.345Z,75.5859
2019-05-17T07:24:06.315Z,75.7874
2019-05-17T07:25:10.886Z,75.6836
2019-05-17T07:26:14.336Z,75.5493
2019-05-17T07:27:19.250Z,75.4456
2019-05-17T07:28:22.372Z,75.3418
2019-05-17T07:29:25.312Z,75.2441
2019-05-17T07:30:30.417Z,75.2441
2019-05-17T07:31:34.375Z,75.1404
2019-05-17T07:32:37.351Z,74.9329
2019-05-17T07:33:42.385Z,74.7986
2019-05-17T07:34:45.387Z,74.7986
2019-05-17T07:35:47.323Z,74.6948
2019-05-17T07:36:50.452Z,74.7986
2019-05-17T07:37:53.341Z,73.9807
2019-05-17T07:38:56.359Z,73.7732
2019-05-17T07:40:04.655Z,74.2859
2019-05-17T07:41:07.340Z,74.3530
2019-05-17T07:42:10.315Z,74.2493
2019-05-17T07:43:14.897Z,74.0479
2019-05-17T07:44:20.386Z,73.7427
2019-05-17T07:45:23.311Z,73.7061
2019-05-17T07:46:26.342Z,73.8098
2019-05-17T07:47:29.489Z,73.9136
2019-05-17T07:48:32.297Z,73.8098
2019-05-17T07:49:35.391Z,73.6694
2019-05-17T07:50:39.763Z,73.5718
2019-05-17T07:51:44.331Z,73.7732
2019-05-17T07:52:49.807Z,73.7732
2019-05-17T07:53:53.427Z,73.6694
2019-05-17T07:54:56.288Z,73.3337
2019-05-17T07:55:59.765Z,73.2300
2019-05-17T07:57:03.301Z,73.1262
2019-05-17T07:58:06.345Z,72.9248
2019-05-17T07:59:09.536Z,72.3145
2019-05-17T08:00:14.369Z,71.9055
2019-05-17T08:01:17.316Z,71.9055
2019-05-17T08:02:20.347Z,72.0764
2019-05-17T08:03:24.964Z,72.0764
2019-05-17T08:04:29.939Z,72.1741
2019-05-17T08:05:33.301Z,72.0764
2019-05-17T08:06:36.334Z,72.1741
2019-05-17T08:07:40.305Z,72.2778
2019-05-17T08:08:44.361Z,72.0398
2019-05-17T08:09:47.292Z,71.9360
2019-05-17T08:10:50.942Z,72.0398
2019-05-17T08:11:54.320Z,71.9360
2019-05-17T08:12:59.772Z,72.0398
2019-05-17T08:14:03.353Z,72.1436
2019-05-17T08:15:06.313Z,72.1436
2019-05-17T08:16:10.285Z,71.6309
2019-05-17T08:17:14.322Z,71.5332
2019-05-17T08:18:17.332Z,71.3257
2019-05-17T08:19:20.534Z,71.6309
2019-05-17T08:20:23.309Z,71.7346
2019-05-17T08:21:26.330Z,71.2280
2019-05-17T08:22:29.435Z,71.4294
2019-05-17T08:23:32.312Z,71.3257
2019-05-17T08:24:35.311Z,71.1243
2019-05-17T08:25:52.097Z,71.2280
2019-05-17T08:26:46.309Z,71.0205
2019-05-17T08:27:50.305Z,71.3257
2019-05-17T08:28:53.323Z,71.6309
2019-05-17T08:29:56.357Z,71.6309
2019-05-17T08:31:00.997Z,71.6309
2019-05-17T08:32:04.366Z,71.4294
2019-05-17T08:33:07.357Z,71.1243
2019-05-17T08:34:10.517Z,71.5332
2019-05-17T08:35:13.384Z,71.3257
2019-05-17T08:36:16.330Z,71.3257
2019-05-17T08:37:20.447Z,71.2280
2019-05-17T08:38:24.357Z,70.8191
2019-05-17T08:39:27.302Z,70.3064
2019-05-17T08:40:30.652Z,70.8191
2019-05-17T08:41:34.324Z,71.1243
2019-05-17T08:42:37.316Z,71.2280
2019-05-17T08:43:46.649Z,71.0205
2019-05-17T08:44:49.785Z,70.4773
2019-05-17T08:45:53.309Z,70.3796
2019-05-17T08:46:56.358Z,70.3796
2019-05-17T08:48:00.351Z,69.9707
2019-05-17T08:49:03.366Z,70.5505
2019-05-17T08:50:06.317Z,70.7520
2019-05-17T08:51:10.814Z,70.8557
2019-05-17T08:52:13.360Z,70.7520
2019-05-17T08:53:16.295Z,70.5139
2019-05-17T08:54:19.638Z,70.1050
2019-05-17T08:55:22.303Z,70.0073
2019-05-17T08:56:24.521Z,69.7693
2019-05-17T08:57:30.073Z,69.7388
2019-05-17T08:58:33.330Z,69.9402
2019-05-17T08:59:36.376Z,69.7021
2019-05-17T09:00:40.633Z,69.4702
2019-05-17T09:01:44.358Z,69.1650
2019-05-17T09:02:49.843Z,69.0308
2019-05-17T09:03:53.317Z,68.0847
2019-05-17T09:04:56.357Z,67.1387
2019-05-17T09:06:02.326Z,67.9199
2019-05-17T09:07:06.300Z,68.0176
2019-05-17T09:08:10.460Z,67.4805
2019-05-17T09:09:14.292Z,67.3462
2019-05-17T09:10:17.353Z,67.3462
2019-05-17T09:11:20.315Z,67.5537
2019-05-17T09:12:23.314Z,68.6340
2019-05-17T09:13:26.310Z,67.7185
2019-05-17T09:14:29.475Z,65.9668
2019-05-17T09:15:32.350Z,64.3188
2019-05-17T09:16:35.307Z,65.3015
2019-05-17T09:17:39.709Z,64.9658
2019-05-17T09:18:43.330Z,64.6362
2019-05-17T09:19:46.426Z,64.1663
2019-05-17T09:20:49.593Z,64.3372
2019-05-17T09:21:53.301Z,63.6047
2019-05-17T09:22:56.303Z,63.4705
2019-05-17T09:23:59.817Z,61.9629
2019-05-17T09:25:03.317Z,59.7473
2019-05-17T09:26:06.349Z,60.7239
2019-05-17T09:27:10.162Z,60.8276
2019-05-17T09:28:13.330Z,61.0291
2019-05-17T09:29:16.300Z,60.8948
2019-05-17T09:30:20.332Z,61.2671
2019-05-17T09:31:23.394Z,59.5337
2019-05-17T09:32:26.289Z,58.5266
2019-05-17T09:33:30.033Z,59.1309
2019-05-17T09:34:33.318Z,59.9365
2019-05-17T09:35:36.319Z,58.7280
2019-05-17T09:36:40.916Z,57.5195
2019-05-17T09:37:44.359Z,56.0364
2019-05-17T09:38:49.316Z,56.9702
2019-05-17T09:39:52.275Z,56.5674
2019-05-17T09:40:55.341Z,57.7026
2019-05-17T09:41:59.585Z,57.4280
2019-05-17T09:43:03.303Z,58.1360
2019-05-17T09:44:12.830Z,58.8379
2019-05-17T09:45:14.322Z,58.4351
2019-05-17T09:46:19.484Z,58.4351
2019-05-17T09:47:23.374Z,58.6365
2019-05-17T09:48:26.323Z,57.9590
2019-05-17T09:49:29.948Z,58.8684
2019-05-17T09:50:33.334Z,58.9966
2019-05-17T09:51:36.256Z,59.4971
2019-05-17T09:52:40.704Z,59.0942
2019-05-17T09:53:44.326Z,59.2957
2019-05-17T09:54:47.299Z,59.6985
2019-05-17T09:55:50.300Z,59.2712
2019-05-17T09:56:53.292Z,59.1675
2019-05-17T09:57:56.411Z,59.0698
2019-05-17T09:59:00.368Z,59.3689
2019-05-17T10:00:03.334Z,58.7402
2019-05-17T10:01:06.300Z,59.0393
2019-05-17T10:02:09.555Z,58.6365
2019-05-17T10:03:12.381Z,59.3445
2019-05-17T10:04:15.330Z,58.5083
2019-05-17T10:05:20.147Z,58.7097
2019-05-17T10:06:23.306Z,58.7097
2019-05-17T10:07:26.353Z,56.9702
2019-05-17T10:08:29.343Z,57.6477
2019-05-17T10:09:32.326Z,58.3252
2019-05-17T10:10:35.327Z,58.2947
2019-05-17T10:11:39.913Z,57.6965
2019-05-17T10:12:43.319Z,55.6580
2019-05-17T10:13:46.294Z,55.4565
2019-05-17T10:14:49.864Z,55.7556
2019-05-17T10:15:53.328Z,55.7556
2019-05-17T10:16:56.297Z,55.1270
2019-05-17T10:18:00.583Z,54.1260
2019-05-17T10:19:04.340Z,55.2307
2019-05-17T10:20:07.314Z,54.4006
2019-05-17T10:21:10.579Z,54.1992
2019-05-17T10:22:14.298Z,54.1016
2019-05-17T10:23:19.530Z,53.7720
2019-05-17T10:24:34.932Z,54.5227
2019-05-17T10:25:31.307Z,54.5227
2019-05-17T10:26:34.347Z,54.3945
2019-05-17T10:27:37.290Z,54.8706
2019-05-17T10:28:40.294Z,52.3438
2019-05-17T10:29:43.372Z,51.1169
2019-05-17T10:30:46.313Z,51.6907
2019-05-17T10:31:50.419Z,50.2686
2019-05-17T10:32:53.318Z,51.9409
2019-05-17T10:33:58.317Z,51.5442
2019-05-17T10:35:03.302Z,51.6174
2019-05-17T10:36:06.295Z,50.2991
2019-05-17T10:37:10.487Z,50.1953
2019-05-17T10:38:12.349Z,50.6714
2019-05-17T10:39:15.311Z,50.6714
2019-05-17T10:40:20.384Z,49.8474
2019-05-17T10:41:24.300Z,48.6511
2019-05-17T10:42:27.310Z,47.0581
2019-05-17T10:43:30.345Z,47.4548
2019-05-17T10:44:46.269Z,48.9502
2019-05-17T10:45:41.302Z,48.7549
2019-05-17T10:46:44.341Z,49.1516
2019-05-17T10:47:47.370Z,49.2493
2019-05-17T10:48:50.305Z,48.7549
2019-05-17T10:49:52.326Z,47.8577
2019-05-17T10:50:55.321Z,46.7590
2019-05-17T10:51:59.948Z,47.7539
2019-05-17T10:53:03.428Z,47.6807
2019-05-17T10:54:06.344Z,46.0815
2019-05-17T10:55:10.497Z,48.1018
2019-05-17T10:56:14.287Z,46.5820
2019-05-17T10:57:19.288Z,49.2737
2019-05-17T10:58:22.373Z,49.2493
2019-05-17T10:59:25.326Z,48.2300
2019-05-17T11:00:30.380Z,48.4070
2019-05-17T11:01:33.332Z,47.0886
2019-05-17T11:02:36.296Z,46.8689
2019-05-17T11:03:39.840Z,45.9717
2019-05-17T11:04:43.314Z,47.2656
2019-05-17T11:05:46.327Z,46.6492
2019-05-17T11:06:50.115Z,47.2473
2019-05-17T11:07:53.310Z,47.6196
2019-05-17T11:08:56.326Z,43.8416
2019-05-17T11:10:00.383Z,44.8364
2019-05-17T11:11:03.331Z,45.3308
2019-05-17T11:12:06.272Z,46.6248
2019-05-17T11:13:09.315Z,43.8416
2019-05-17T11:14:12.385Z,47.6196
2019-05-17T11:15:15.333Z,48.0957
2019-05-17T11:16:18.318Z,47.4976
2019-05-17T11:17:21.312Z,45.9045
2019-05-17T11:18:24.343Z,44.6960
2019-05-17T11:19:27.329Z,43.4998
2019-05-17T11:20:30.312Z,44.5923
2019-05-17T11:21:33.301Z,45.1904
2019-05-17T11:22:36.343Z,44.2932
2019-05-17T11:23:39.299Z,43.6768
2019-05-17T11:24:42.335Z,44.4763
2019-05-17T11:25:46.387Z,44.9707
2019-05-17T11:26:49.317Z,44.5740
2019-05-17T11:27:52.306Z,44.4763
2019-05-17T11:28:55.309Z,43.1824
2019-05-17T11:29:58.358Z,42.7856
2019-05-17T11:31:01.279Z,41.3147
2019-05-17T11:32:04.329Z,43.7988
2019-05-17T11:33:07.340Z,43.4204
2019-05-17T11:34:10.408Z,43.4448
2019-05-17T11:35:13.316Z,44.2383
2019-05-17T11:36:16.298Z,41.5771
2019-05-17T11:37:19.328Z,44.1833
2019-05-17T11:38:22.298Z,45.0012
2019-05-17T11:39:25.334Z,45.9167
2019-05-17T11:40:28.357Z,45.1233
2019-05-17T11:41:31.354Z,44.8425
2019-05-17T11:42:34.284Z,44.8425
2019-05-17T11:43:37.333Z,44.7449
2019-05-17T11:44:40.343Z,47.5586
2019-05-17T11:45:43.328Z,48.0530
2019-05-17T11:46:46.331Z,46.9360
2019-05-17T11:47:49.315Z,46.0388
2019-05-17T11:48:52.317Z,44.6472
2019-05-17T11:49:55.326Z,46.1365
2019-05-17T11:50:58.356Z,43.6462
2019-05-17T11:52:01.300Z,45.4407
2019-05-17T11:53:04.320Z,45.7397
2019-05-17T11:54:07.330Z,47.2107
2019-05-17T11:55:10.320Z,47.2107
2019-05-17T11:56:13.359Z,46.4172
2019-05-17T11:57:16.320Z,47.0886
2019-05-17T11:58:19.283Z,47.1924
2019-05-17T11:59:22.297Z,47.2656
2019-05-17T12:00:25.353Z,46.6675
2019-05-17T12:01:28.326Z,44.4824
2019-05-17T12:02:31.327Z,44.2810
2019-05-17T12:03:33.316Z,43.6035
2019-05-17T12:04:36.293Z,44.0063
2019-05-17T12:05:39.339Z,44.1223
2019-05-17T12:06:42.318Z,42.0532
2019-05-17T12:07:44.326Z,41.0767
2019-05-17T12:08:47.313Z,40.6189
2019-05-17T12:09:50.369Z,41.7542
2019-05-17T12:10:53.433Z,43.0725
2019-05-17T12:11:56.361Z,43.7927
2019-05-17T12:13:00.383Z,44.5129
2019-05-17T12:14:03.300Z,44.5374
2019-05-17T12:15:06.318Z,43.4326
2019-05-17T12:16:09.311Z,44.5374
2019-05-17T12:17:12.363Z,44.6594
2019-05-17T12:18:15.305Z,44.1589
2019-05-17T12:19:18.288Z,44.4580
2019-05-17T12:20:21.343Z,44.2566
2019-05-17T12:21:24.285Z,46.0571
2019-05-17T12:22:27.363Z,45.9351
2019-05-17T12:23:30.346Z,45.7397
2019-05-17T12:24:33.373Z,46.3135
2019-05-17T12:25:36.304Z,45.5139
2019-05-17T12:26:39.334Z,46.3135
2019-05-17T12:27:42.312Z,45.4163
2019-05-17T12:28:45.301Z,45.3125
2019-05-17T12:29:47.327Z,45.1355
2019-05-17T12:30:50.305Z,45.7397
2019-05-17T12:31:53.304Z,46.2402
2019-05-17T12:32:55.352Z,46.1365
2019-05-17T12:33:58.339Z,46.6370
2019-05-17T12:35:00.348Z,46.1609
2019-05-17T12:36:03.402Z,47.0581
2019-05-17T12:37:06.301Z,47.4365
2019-05-17T12:38:09.346Z,47.6379
2019-05-17T12:39:12.339Z,47.8394
2019-05-17T12:40:15.294Z,48.1384
2019-05-17T12:41:18.289Z,47.9370
2019-05-17T12:42:21.302Z,48.3398
2019-05-17T12:43:24.392Z,48.2422
2019-05-17T12:44:27.333Z,46.8384
2019-05-17T12:45:30.307Z,47.5159
2019-05-17T12:46:33.351Z,47.3145
2019-05-17T12:47:36.398Z,47.3145
2019-05-17T12:48:39.283Z,45.3125
2019-05-17T12:49:42.328Z,46.0144